sensor_id;sensor_type;location;lat;lon;timestamp;P1;durP1;ratioP1;P2;durP2;ratioP2
68942;SDS011;60852;52.190;4.422;2023-09-19T00:02:01;4.55;;;3.28;;
68942;SDS011;60852;52.190;4.422;2023-09-19T00:04:31;4.72;;;3.38;;
68942;SDS011;60852;52.190;4.422;2023-09-19T00:06:57;4.78;;;3.45;;
68942;SDS011;60852;52.190;4.422;2023-09-19T00:09:23;4.65;;;3.36;;
68942;SDS011;60852;52.190;4.422;2023-09-19T00:11:52;4.49;;;3.24;;
68942;SDS011;60852;52.190;4.422;2023-09-19T00:14:18;4.48;;;3.33;;
68942;SDS011;60852;52.190;4.422;2023-09-19T00:16:43;4.43;;;3.26;;
68942;SDS011;60852;52.190;4.422;2023-09-19T00:19:09;5.38;;;3.87;;
68942;SDS011;60852;52.190;4.422;2023-09-19T00:21:35;4.70;;;3.40;;
68942;SDS011;60852;52.190;4.422;2023-09-19T00:24:03;4.74;;;3.48;;
68942;SDS011;60852;52.190;4.422;2023-09-19T00:26:31;4.18;;;3.07;;
68942;SDS011;60852;52.190;4.422;2023-09-19T00:28:57;4.22;;;3.12;;
68942;SDS011;60852;52.190;4.422;2023-09-19T00:31:29;4.73;;;3.45;;
68942;SDS011;60852;52.190;4.422;2023-09-19T00:33:55;4.54;;;3.25;;
68942;SDS011;60852;52.190;4.422;2023-09-19T00:36:25;4.77;;;3.38;;
68942;SDS011;60852;52.190;4.422;2023-09-19T00:38:50;4.82;;;3.41;;
68942;SDS011;60852;52.190;4.422;2023-09-19T00:41:16;5.11;;;3.60;;
68942;SDS011;60852;52.190;4.422;2023-09-19T00:43:42;5.59;;;3.88;;
68942;SDS011;60852;52.190;4.422;2023-09-19T00:46:07;5.56;;;3.89;;
68942;SDS011;60852;52.190;4.422;2023-09-19T00:48:36;5.48;;;3.85;;
68942;SDS011;60852;52.190;4.422;2023-09-19T00:51:08;6.52;;;4.52;;
68942;SDS011;60852;52.190;4.422;2023-09-19T00:53:35;6.10;;;4.22;;
68942;SDS011;60852;52.190;4.422;2023-09-19T00:56:02;5.95;;;4.20;;
68942;SDS011;60852;52.190;4.422;2023-09-19T00:58:32;5.14;;;3.60;;
68942;SDS011;60852;52.190;4.422;2023-09-19T01:01:00;5.81;;;4.03;;
68942;SDS011;60852;52.190;4.422;2023-09-19T01:03:26;6.01;;;4.11;;
68942;SDS011;60852;52.190;4.422;2023-09-19T01:05:52;5.67;;;3.91;;
68942;SDS011;60852;52.190;4.422;2023-09-19T01:08:18;6.56;;;4.52;;
68942;SDS011;60852;52.190;4.422;2023-09-19T01:10:45;6.19;;;4.38;;
68942;SDS011;60852;52.190;4.422;2023-09-19T01:13:29;6.47;;;4.63;;
68942;SDS011;60852;52.190;4.422;2023-09-19T01:21:42;6.90;;;4.60;;
68942;SDS011;60852;52.190;4.422;2023-09-19T01:25:19;6.81;;;4.54;;
68942;SDS011;60852;52.190;4.422;2023-09-19T01:27:58;6.72;;;4.44;;
68942;SDS011;60852;52.190;4.422;2023-09-19T01:32:35;6.73;;;4.48;;
68942;SDS011;60852;52.190;4.422;2023-09-19T01:35:03;6.80;;;4.48;;
68942;SDS011;60852;52.190;4.422;2023-09-19T01:37:31;7.85;;;5.10;;
68942;SDS011;60852;52.190;4.422;2023-09-19T01:40:16;7.46;;;4.88;;
68942;SDS011;60852;52.190;4.422;2023-09-19T01:48:25;7.77;;;5.14;;
68942;SDS011;60852;52.190;4.422;2023-09-19T01:51:02;9.26;;;5.99;;
68942;SDS011;60852;52.190;4.422;2023-09-19T01:56:36;7.64;;;4.98;;
68942;SDS011;60852;52.190;4.422;2023-09-19T01:59:16;8.29;;;5.43;;
68942;SDS011;60852;52.190;4.422;2023-09-19T02:01:48;7.77;;;5.04;;
68942;SDS011;60852;52.190;4.422;2023-09-19T02:04:16;8.87;;;5.68;;
68942;SDS011;60852;52.190;4.422;2023-09-19T02:06:42;7.51;;;4.95;;
68942;SDS011;60852;52.190;4.422;2023-09-19T02:09:08;6.97;;;4.65;;
68942;SDS011;60852;52.190;4.422;2023-09-19T02:11:34;7.18;;;4.74;;
68942;SDS011;60852;52.190;4.422;2023-09-19T02:14:00;8.13;;;5.35;;
68942;SDS011;60852;52.190;4.422;2023-09-19T02:16:26;8.08;;;5.31;;
68942;SDS011;60852;52.190;4.422;2023-09-19T02:18:51;7.26;;;4.81;;
68942;SDS011;60852;52.190;4.422;2023-09-19T02:21:17;6.33;;;4.25;;
68942;SDS011;60852;52.190;4.422;2023-09-19T02:23:44;6.61;;;4.51;;
68942;SDS011;60852;52.190;4.422;2023-09-19T02:26:10;6.39;;;4.38;;
68942;SDS011;60852;52.190;4.422;2023-09-19T02:28:37;5.96;;;4.13;;
68942;SDS011;60852;52.190;4.422;2023-09-19T02:31:02;5.96;;;4.13;;
68942;SDS011;60852;52.190;4.422;2023-09-19T02:33:30;6.23;;;4.27;;
68942;SDS011;60852;52.190;4.422;2023-09-19T02:36:00;6.33;;;4.34;;
68942;SDS011;60852;52.190;4.422;2023-09-19T02:38:25;6.14;;;4.18;;
68942;SDS011;60852;52.190;4.422;2023-09-19T02:40:52;6.23;;;4.30;;
68942;SDS011;60852;52.190;4.422;2023-09-19T02:43:18;5.91;;;4.09;;
68942;SDS011;60852;52.190;4.422;2023-09-19T02:45:47;5.40;;;3.74;;
68942;SDS011;60852;52.190;4.422;2023-09-19T02:48:14;5.11;;;3.59;;
68942;SDS011;60852;52.190;4.422;2023-09-19T02:50:40;4.98;;;3.50;;
68942;SDS011;60852;52.190;4.422;2023-09-19T02:53:06;5.28;;;3.68;;
68942;SDS011;60852;52.190;4.422;2023-09-19T02:55:31;5.91;;;3.99;;
68942;SDS011;60852;52.190;4.422;2023-09-19T02:57:57;5.34;;;3.62;;
68942;SDS011;60852;52.190;4.422;2023-09-19T03:00:23;6.84;;;4.59;;
68942;SDS011;60852;52.190;4.422;2023-09-19T03:02:50;6.31;;;4.24;;
68942;SDS011;60852;52.190;4.422;2023-09-19T03:05:18;7.28;;;4.80;;
68942;SDS011;60852;52.190;4.422;2023-09-19T03:07:44;7.05;;;4.60;;
68942;SDS011;60852;52.190;4.422;2023-09-19T03:10:12;6.25;;;4.12;;
68942;SDS011;60852;52.190;4.422;2023-09-19T03:12:38;6.48;;;4.24;;
68942;SDS011;60852;52.190;4.422;2023-09-19T03:15:05;6.06;;;4.00;;
68942;SDS011;60852;52.190;4.422;2023-09-19T03:17:31;5.83;;;3.88;;
68942;SDS011;60852;52.190;4.422;2023-09-19T03:19:57;6.22;;;4.16;;
68942;SDS011;60852;52.190;4.422;2023-09-19T03:22:23;5.13;;;3.52;;
68942;SDS011;60852;52.190;4.422;2023-09-19T03:24:50;5.23;;;3.57;;
68942;SDS011;60852;52.190;4.422;2023-09-19T03:27:15;5.58;;;3.80;;
68942;SDS011;60852;52.190;4.422;2023-09-19T03:29:41;5.59;;;3.75;;
68942;SDS011;60852;52.190;4.422;2023-09-19T03:32:07;5.60;;;3.75;;
68942;SDS011;60852;52.190;4.422;2023-09-19T03:34:38;5.54;;;3.77;;
68942;SDS011;60852;52.190;4.422;2023-09-19T03:37:11;6.08;;;4.11;;
68942;SDS011;60852;52.190;4.422;2023-09-19T03:39:37;7.05;;;4.55;;
68942;SDS011;60852;52.190;4.422;2023-09-19T03:42:02;6.91;;;4.42;;
68942;SDS011;60852;52.190;4.422;2023-09-19T03:44:29;5.80;;;3.78;;
68942;SDS011;60852;52.190;4.422;2023-09-19T03:46:55;6.17;;;4.08;;
68942;SDS011;60852;52.190;4.422;2023-09-19T03:49:22;5.79;;;3.85;;
68942;SDS011;60852;52.190;4.422;2023-09-19T03:51:47;6.19;;;4.14;;
68942;SDS011;60852;52.190;4.422;2023-09-19T03:54:13;5.64;;;3.78;;
68942;SDS011;60852;52.190;4.422;2023-09-19T03:56:39;4.88;;;3.24;;
68942;SDS011;60852;52.190;4.422;2023-09-19T03:59:04;4.76;;;3.23;;
68942;SDS011;60852;52.190;4.422;2023-09-19T04:01:30;4.17;;;2.88;;
68942;SDS011;60852;52.190;4.422;2023-09-19T04:03:58;4.45;;;3.10;;
68942;SDS011;60852;52.190;4.422;2023-09-19T04:06:23;4.73;;;3.28;;
68942;SDS011;60852;52.190;4.422;2023-09-19T04:08:49;4.98;;;3.48;;
68942;SDS011;60852;52.190;4.422;2023-09-19T04:11:14;5.49;;;3.74;;
68942;SDS011;60852;52.190;4.422;2023-09-19T04:13:40;5.87;;;4.00;;
68942;SDS011;60852;52.190;4.422;2023-09-19T04:16:05;5.31;;;3.60;;
68942;SDS011;60852;52.190;4.422;2023-09-19T04:18:32;5.71;;;3.86;;
68942;SDS011;60852;52.190;4.422;2023-09-19T04:20:58;5.68;;;3.88;;
68942;SDS011;60852;52.190;4.422;2023-09-19T04:23:27;5.68;;;3.93;;
68942;SDS011;60852;52.190;4.422;2023-09-19T04:25:53;5.43;;;3.73;;
68942;SDS011;60852;52.190;4.422;2023-09-19T04:28:19;6.06;;;4.10;;
68942;SDS011;60852;52.190;4.422;2023-09-19T04:30:44;6.11;;;4.08;;
68942;SDS011;60852;52.190;4.422;2023-09-19T04:33:09;6.10;;;4.10;;
68942;SDS011;60852;52.190;4.422;2023-09-19T04:35:35;6.36;;;4.35;;
68942;SDS011;60852;52.190;4.422;2023-09-19T04:38:00;6.41;;;4.39;;
68942;SDS011;60852;52.190;4.422;2023-09-19T04:40:28;5.44;;;3.74;;
68942;SDS011;60852;52.190;4.422;2023-09-19T04:42:57;5.77;;;3.96;;
68942;SDS011;60852;52.190;4.422;2023-09-19T04:45:23;5.96;;;4.09;;
68942;SDS011;60852;52.190;4.422;2023-09-19T04:47:49;5.80;;;4.05;;
68942;SDS011;60852;52.190;4.422;2023-09-19T04:50:14;5.70;;;3.95;;
68942;SDS011;60852;52.190;4.422;2023-09-19T04:52:42;6.74;;;4.55;;
68942;SDS011;60852;52.190;4.422;2023-09-19T04:55:12;6.54;;;4.47;;
68942;SDS011;60852;52.190;4.422;2023-09-19T04:57:45;6.71;;;4.64;;
68942;SDS011;60852;52.190;4.422;2023-09-19T05:00:15;7.52;;;5.05;;
68942;SDS011;60852;52.190;4.422;2023-09-19T05:02:44;6.29;;;4.28;;
68942;SDS011;60852;52.190;4.422;2023-09-19T05:05:11;6.82;;;4.60;;
68942;SDS011;60852;52.190;4.422;2023-09-19T05:07:41;6.92;;;4.71;;
68942;SDS011;60852;52.190;4.422;2023-09-19T05:10:07;7.37;;;5.04;;
68942;SDS011;60852;52.190;4.422;2023-09-19T05:12:34;7.23;;;4.84;;
68942;SDS011;60852;52.190;4.422;2023-09-19T05:15:03;6.93;;;4.53;;
68942;SDS011;60852;52.190;4.422;2023-09-19T05:17:32;6.96;;;4.55;;
68942;SDS011;60852;52.190;4.422;2023-09-19T05:19:59;7.17;;;4.69;;
68942;SDS011;60852;52.190;4.422;2023-09-19T05:22:40;7.35;;;4.80;;
68942;SDS011;60852;52.190;4.422;2023-09-19T05:25:06;7.36;;;4.83;;
68942;SDS011;60852;52.190;4.422;2023-09-19T05:27:32;6.69;;;4.42;;
68942;SDS011;60852;52.190;4.422;2023-09-19T05:29:58;7.26;;;4.77;;
68942;SDS011;60852;52.190;4.422;2023-09-19T05:32:24;6.14;;;4.12;;
68942;SDS011;60852;52.190;4.422;2023-09-19T05:34:50;5.99;;;4.13;;
68942;SDS011;60852;52.190;4.422;2023-09-19T05:37:18;5.85;;;4.15;;
68942;SDS011;60852;52.190;4.422;2023-09-19T05:39:44;6.25;;;4.37;;
68942;SDS011;60852;52.190;4.422;2023-09-19T05:42:10;6.36;;;4.45;;
68942;SDS011;60852;52.190;4.422;2023-09-19T05:44:35;6.31;;;4.36;;
68942;SDS011;60852;52.190;4.422;2023-09-19T05:47:02;6.53;;;4.48;;
68942;SDS011;60852;52.190;4.422;2023-09-19T05:49:28;7.26;;;4.94;;
68942;SDS011;60852;52.190;4.422;2023-09-19T05:51:53;6.11;;;4.13;;
68942;SDS011;60852;52.190;4.422;2023-09-19T05:54:20;7.07;;;4.83;;
68942;SDS011;60852;52.190;4.422;2023-09-19T05:56:45;7.72;;;5.25;;
68942;SDS011;60852;52.190;4.422;2023-09-19T05:59:17;6.85;;;4.65;;
68942;SDS011;60852;52.190;4.422;2023-09-19T06:01:43;6.39;;;4.43;;
68942;SDS011;60852;52.190;4.422;2023-09-19T06:04:08;7.04;;;4.75;;
68942;SDS011;60852;52.190;4.422;2023-09-19T06:06:34;7.22;;;4.81;;
68942;SDS011;60852;52.190;4.422;2023-09-19T06:09:04;8.44;;;5.61;;
68942;SDS011;60852;52.190;4.422;2023-09-19T06:11:31;7.70;;;5.18;;
68942;SDS011;60852;52.190;4.422;2023-09-19T06:13:59;6.96;;;4.75;;
68942;SDS011;60852;52.190;4.422;2023-09-19T06:16:31;7.43;;;5.20;;
68942;SDS011;60852;52.190;4.422;2023-09-19T06:18:59;7.42;;;4.99;;
68942;SDS011;60852;52.190;4.422;2023-09-19T06:21:26;7.58;;;5.10;;
68942;SDS011;60852;52.190;4.422;2023-09-19T06:23:55;7.64;;;5.26;;
68942;SDS011;60852;52.190;4.422;2023-09-19T06:26:23;6.95;;;4.81;;
68942;SDS011;60852;52.190;4.422;2023-09-19T06:28:48;7.68;;;5.29;;
68942;SDS011;60852;52.190;4.422;2023-09-19T06:31:14;7.81;;;5.25;;
68942;SDS011;60852;52.190;4.422;2023-09-19T06:33:39;6.85;;;4.70;;
68942;SDS011;60852;52.190;4.422;2023-09-19T06:36:05;7.15;;;4.93;;
68942;SDS011;60852;52.190;4.422;2023-09-19T06:38:31;7.15;;;4.89;;
68942;SDS011;60852;52.190;4.422;2023-09-19T06:40:59;7.56;;;5.19;;
68942;SDS011;60852;52.190;4.422;2023-09-19T06:43:26;7.49;;;5.15;;
68942;SDS011;60852;52.190;4.422;2023-09-19T06:45:53;7.24;;;4.90;;
68942;SDS011;60852;52.190;4.422;2023-09-19T06:48:20;7.79;;;5.24;;
68942;SDS011;60852;52.190;4.422;2023-09-19T06:50:46;7.96;;;5.26;;
68942;SDS011;60852;52.190;4.422;2023-09-19T06:53:13;8.28;;;5.44;;
68942;SDS011;60852;52.190;4.422;2023-09-19T06:55:38;8.32;;;5.60;;
68942;SDS011;60852;52.190;4.422;2023-09-19T06:58:04;9.01;;;6.07;;
68942;SDS011;60852;52.190;4.422;2023-09-19T07:00:31;8.79;;;5.81;;
68942;SDS011;60852;52.190;4.422;2023-09-19T07:03:03;8.44;;;5.66;;
68942;SDS011;60852;52.190;4.422;2023-09-19T07:05:30;10.02;;;6.64;;
68942;SDS011;60852;52.190;4.422;2023-09-19T07:07:56;9.58;;;6.27;;
68942;SDS011;60852;52.190;4.422;2023-09-19T07:10:24;9.88;;;6.49;;
68942;SDS011;60852;52.190;4.422;2023-09-19T07:13:00;9.40;;;6.25;;
68942;SDS011;60852;52.190;4.422;2023-09-19T07:15:28;8.54;;;5.71;;
68942;SDS011;60852;52.190;4.422;2023-09-19T07:17:58;7.05;;;4.81;;
68942;SDS011;60852;52.190;4.422;2023-09-19T07:20:26;7.66;;;5.34;;
68942;SDS011;60852;52.190;4.422;2023-09-19T07:22:52;7.50;;;5.26;;
68942;SDS011;60852;52.190;4.422;2023-09-19T07:25:20;7.47;;;5.09;;
68942;SDS011;60852;52.190;4.422;2023-09-19T07:27:46;7.12;;;4.88;;
68942;SDS011;60852;52.190;4.422;2023-09-19T07:30:12;7.10;;;4.84;;
68942;SDS011;60852;52.190;4.422;2023-09-19T07:32:39;8.33;;;5.60;;
68942;SDS011;60852;52.190;4.422;2023-09-19T07:35:06;8.74;;;5.86;;
68942;SDS011;60852;52.190;4.422;2023-09-19T07:37:32;8.60;;;5.72;;
68942;SDS011;60852;52.190;4.422;2023-09-19T07:39:58;8.51;;;5.67;;
68942;SDS011;60852;52.190;4.422;2023-09-19T07:42:26;8.98;;;6.04;;
68942;SDS011;60852;52.190;4.422;2023-09-19T07:44:52;8.56;;;5.80;;
68942;SDS011;60852;52.190;4.422;2023-09-19T07:47:21;8.81;;;6.03;;
68942;SDS011;60852;52.190;4.422;2023-09-19T07:49:47;9.77;;;6.57;;
68942;SDS011;60852;52.190;4.422;2023-09-19T07:52:13;8.61;;;5.80;;
68942;SDS011;60852;52.190;4.422;2023-09-19T07:54:38;7.85;;;5.32;;
68942;SDS011;60852;52.190;4.422;2023-09-19T07:57:06;7.99;;;5.40;;
68942;SDS011;60852;52.190;4.422;2023-09-19T07:59:32;8.51;;;5.80;;
68942;SDS011;60852;52.190;4.422;2023-09-19T08:01:58;7.73;;;5.22;;
68942;SDS011;60852;52.190;4.422;2023-09-19T08:04:23;7.74;;;5.28;;
68942;SDS011;60852;52.190;4.422;2023-09-19T08:06:51;7.22;;;4.95;;
68942;SDS011;60852;52.190;4.422;2023-09-19T08:09:17;7.33;;;5.15;;
68942;SDS011;60852;52.190;4.422;2023-09-19T08:11:46;7.92;;;5.56;;
68942;SDS011;60852;52.190;4.422;2023-09-19T08:14:12;7.24;;;5.13;;
68942;SDS011;60852;52.190;4.422;2023-09-19T08:16:39;8.10;;;5.65;;
68942;SDS011;60852;52.190;4.422;2023-09-19T08:19:05;7.20;;;5.02;;
68942;SDS011;60852;52.190;4.422;2023-09-19T08:21:31;7.44;;;5.26;;
68942;SDS011;60852;52.190;4.422;2023-09-19T08:23:57;6.94;;;4.94;;
68942;SDS011;60852;52.190;4.422;2023-09-19T08:26:23;6.98;;;4.95;;
68942;SDS011;60852;52.190;4.422;2023-09-19T08:28:49;7.53;;;5.33;;
68942;SDS011;60852;52.190;4.422;2023-09-19T08:31:16;7.57;;;5.34;;
68942;SDS011;60852;52.190;4.422;2023-09-19T08:33:42;7.62;;;5.32;;
68942;SDS011;60852;52.190;4.422;2023-09-19T08:36:09;7.30;;;5.02;;
68942;SDS011;60852;52.190;4.422;2023-09-19T08:38:37;8.21;;;5.68;;
68942;SDS011;60852;52.190;4.422;2023-09-19T08:41:06;7.74;;;5.34;;
68942;SDS011;60852;52.190;4.422;2023-09-19T08:43:34;7.15;;;4.98;;
68942;SDS011;60852;52.190;4.422;2023-09-19T08:46:11;7.62;;;5.43;;
68942;SDS011;60852;52.190;4.422;2023-09-19T08:48:45;8.05;;;5.84;;
68942;SDS011;60852;52.190;4.422;2023-09-19T08:51:24;6.49;;;5.07;;
68942;SDS011;60852;52.190;4.422;2023-09-19T13:19:50;5.02;;;3.93;;
68942;SDS011;60852;52.190;4.422;2023-09-19T13:25:17;4.57;;;3.76;;
68942;SDS011;60852;52.190;4.422;2023-09-19T13:27:44;5.48;;;4.32;;
68942;SDS011;60852;52.190;4.422;2023-09-19T13:30:13;5.74;;;4.46;;
68942;SDS011;60852;52.190;4.422;2023-09-19T13:32:40;5.80;;;4.52;;
68942;SDS011;60852;52.190;4.422;2023-09-19T13:35:08;6.44;;;5.01;;
68942;SDS011;60852;52.190;4.422;2023-09-19T13:37:40;7.30;;;5.45;;
68942;SDS011;60852;52.190;4.422;2023-09-19T13:40:08;7.14;;;5.38;;
68942;SDS011;60852;52.190;4.422;2023-09-19T13:42:37;7.40;;;5.72;;
68942;SDS011;60852;52.190;4.422;2023-09-19T13:45:04;6.62;;;5.23;;
68942;SDS011;60852;52.190;4.422;2023-09-19T13:47:30;7.23;;;5.69;;
68942;SDS011;60852;52.190;4.422;2023-09-19T13:49:56;6.39;;;5.17;;
68942;SDS011;60852;52.190;4.422;2023-09-19T13:52:22;6.52;;;5.19;;
68942;SDS011;60852;52.190;4.422;2023-09-19T13:54:51;6.30;;;5.09;;
68942;SDS011;60852;52.190;4.422;2023-09-19T13:57:18;6.62;;;5.36;;
68942;SDS011;60852;52.190;4.422;2023-09-19T13:59:43;6.69;;;5.50;;
68942;SDS011;60852;52.190;4.422;2023-09-19T14:02:09;7.43;;;5.82;;
68942;SDS011;60852;52.190;4.422;2023-09-19T14:04:35;8.18;;;6.43;;
68942;SDS011;60852;52.190;4.422;2023-09-19T14:07:01;7.94;;;6.35;;
68942;SDS011;60852;52.190;4.422;2023-09-19T14:09:27;8.29;;;6.57;;
68942;SDS011;60852;52.190;4.422;2023-09-19T14:11:52;8.38;;;6.60;;
68942;SDS011;60852;52.190;4.422;2023-09-19T14:14:18;7.24;;;5.78;;
68942;SDS011;60852;52.190;4.422;2023-09-19T14:16:45;7.44;;;5.96;;
68942;SDS011;60852;52.190;4.422;2023-09-19T14:19:12;7.99;;;6.23;;
68942;SDS011;60852;52.190;4.422;2023-09-19T14:21:40;7.96;;;6.12;;
68942;SDS011;60852;52.190;4.422;2023-09-19T14:24:05;8.40;;;6.53;;
68942;SDS011;60852;52.190;4.422;2023-09-19T14:26:37;8.21;;;6.29;;
68942;SDS011;60852;52.190;4.422;2023-09-19T14:29:03;8.76;;;6.63;;
68942;SDS011;60852;52.190;4.422;2023-09-19T14:31:29;8.55;;;6.48;;
68942;SDS011;60852;52.190;4.422;2023-09-19T14:33:55;7.99;;;5.98;;
68942;SDS011;60852;52.190;4.422;2023-09-19T14:36:21;7.71;;;5.81;;
68942;SDS011;60852;52.190;4.422;2023-09-19T14:38:47;7.47;;;5.66;;
68942;SDS011;60852;52.190;4.422;2023-09-19T14:41:13;7.91;;;5.95;;
68942;SDS011;60852;52.190;4.422;2023-09-19T14:43:38;7.45;;;5.64;;
68942;SDS011;60852;52.190;4.422;2023-09-19T14:48:30;7.21;;;5.61;;
68942;SDS011;60852;52.190;4.422;2023-09-19T14:50:55;7.30;;;5.72;;
68942;SDS011;60852;52.190;4.422;2023-09-19T14:53:27;7.57;;;5.88;;
68942;SDS011;60852;52.190;4.422;2023-09-19T14:55:53;8.77;;;6.63;;
68942;SDS011;60852;52.190;4.422;2023-09-19T14:58:20;8.52;;;6.61;;
68942;SDS011;60852;52.190;4.422;2023-09-19T15:00:46;8.61;;;6.68;;
68942;SDS011;60852;52.190;4.422;2023-09-19T15:03:12;8.63;;;6.63;;
68942;SDS011;60852;52.190;4.422;2023-09-19T15:05:38;8.94;;;6.84;;
68942;SDS011;60852;52.190;4.422;2023-09-19T15:08:04;9.02;;;6.85;;
68942;SDS011;60852;52.190;4.422;2023-09-19T15:10:31;7.74;;;6.22;;
68942;SDS011;60852;52.190;4.422;2023-09-19T15:12:56;7.90;;;6.43;;
68942;SDS011;60852;52.190;4.422;2023-09-19T15:15:22;7.34;;;6.08;;
68942;SDS011;60852;52.190;4.422;2023-09-19T15:17:48;7.96;;;6.58;;
68942;SDS011;60852;52.190;4.422;2023-09-19T15:20:13;8.37;;;6.72;;
68942;SDS011;60852;52.190;4.422;2023-09-19T15:22:39;8.29;;;6.65;;
68942;SDS011;60852;52.190;4.422;2023-09-19T15:25:05;7.81;;;6.43;;
68942;SDS011;60852;52.190;4.422;2023-09-19T15:27:31;8.64;;;7.07;;
68942;SDS011;60852;52.190;4.422;2023-09-19T15:29:59;9.27;;;7.42;;
68942;SDS011;60852;52.190;4.422;2023-09-19T15:32:30;9.81;;;7.60;;
68942;SDS011;60852;52.190;4.422;2023-09-19T15:34:56;9.45;;;7.32;;
68942;SDS011;60852;52.190;4.422;2023-09-19T15:37:21;8.56;;;6.78;;
68942;SDS011;60852;52.190;4.422;2023-09-19T15:39:47;7.91;;;6.59;;
68942;SDS011;60852;52.190;4.422;2023-09-19T15:42:12;6.93;;;5.97;;
68942;SDS011;60852;52.190;4.422;2023-09-19T15:44:38;6.84;;;5.91;;
68942;SDS011;60852;52.190;4.422;2023-09-19T15:47:04;7.36;;;6.13;;
68942;SDS011;60852;52.190;4.422;2023-09-19T15:49:29;6.79;;;5.66;;
68942;SDS011;60852;52.190;4.422;2023-09-19T15:51:55;7.00;;;5.81;;
68942;SDS011;60852;52.190;4.422;2023-09-19T15:54:20;7.27;;;6.07;;
68942;SDS011;60852;52.190;4.422;2023-09-19T15:56:47;7.52;;;6.31;;
68942;SDS011;60852;52.190;4.422;2023-09-19T15:59:14;6.92;;;5.74;;
68942;SDS011;60852;52.190;4.422;2023-09-19T16:01:40;7.63;;;6.15;;
68942;SDS011;60852;52.190;4.422;2023-09-19T16:04:07;7.72;;;6.15;;
68942;SDS011;60852;52.190;4.422;2023-09-19T16:06:34;7.76;;;6.25;;
68942;SDS011;60852;52.190;4.422;2023-09-19T16:09:00;7.78;;;6.11;;
68942;SDS011;60852;52.190;4.422;2023-09-19T16:11:29;7.36;;;5.81;;
68942;SDS011;60852;52.190;4.422;2023-09-19T16:13:56;7.07;;;5.81;;
68942;SDS011;60852;52.190;4.422;2023-09-19T16:16:22;6.63;;;5.54;;
68942;SDS011;60852;52.190;4.422;2023-09-19T16:18:49;6.61;;;5.46;;
68942;SDS011;60852;52.190;4.422;2023-09-19T16:21:26;7.21;;;5.77;;
68942;SDS011;60852;52.190;4.422;2023-09-19T16:23:53;7.24;;;5.74;;
68942;SDS011;60852;52.190;4.422;2023-09-19T16:26:20;7.50;;;5.99;;
68942;SDS011;60852;52.190;4.422;2023-09-19T16:28:47;7.50;;;5.93;;
68942;SDS011;60852;52.190;4.422;2023-09-19T16:31:15;8.76;;;6.60;;
68942;SDS011;60852;52.190;4.422;2023-09-19T16:33:43;7.87;;;6.03;;
68942;SDS011;60852;52.190;4.422;2023-09-19T16:36:10;7.66;;;6.04;;
68942;SDS011;60852;52.190;4.422;2023-09-19T16:38:40;7.00;;;5.54;;
68942;SDS011;60852;52.190;4.422;2023-09-19T16:41:07;7.22;;;5.60;;
68942;SDS011;60852;52.190;4.422;2023-09-19T16:43:37;7.42;;;5.81;;
68942;SDS011;60852;52.190;4.422;2023-09-19T16:46:03;7.32;;;5.73;;
68942;SDS011;60852;52.190;4.422;2023-09-19T16:48:33;6.66;;;5.39;;
68942;SDS011;60852;52.190;4.422;2023-09-19T16:50:59;6.39;;;5.26;;
68942;SDS011;60852;52.190;4.422;2023-09-19T16:53:29;6.49;;;5.21;;
68942;SDS011;60852;52.190;4.422;2023-09-19T16:55:55;6.63;;;5.34;;
68942;SDS011;60852;52.190;4.422;2023-09-19T16:58:26;6.68;;;5.43;;
68942;SDS011;60852;52.190;4.422;2023-09-19T17:00:52;6.76;;;5.60;;
68942;SDS011;60852;52.190;4.422;2023-09-19T17:03:18;6.83;;;5.73;;
68942;SDS011;60852;52.190;4.422;2023-09-19T17:05:44;5.67;;;4.82;;
68942;SDS011;60852;52.190;4.422;2023-09-19T17:08:12;6.31;;;5.27;;
68942;SDS011;60852;52.190;4.422;2023-09-19T17:10:37;6.11;;;5.09;;
68942;SDS011;60852;52.190;4.422;2023-09-19T17:13:04;5.60;;;4.81;;
68942;SDS011;60852;52.190;4.422;2023-09-19T17:15:31;5.61;;;4.93;;
68942;SDS011;60852;52.190;4.422;2023-09-19T17:17:56;5.87;;;5.23;;
68942;SDS011;60852;52.190;4.422;2023-09-19T17:20:23;5.04;;;4.62;;
68942;SDS011;60852;52.190;4.422;2023-09-19T17:22:49;5.40;;;4.90;;
68942;SDS011;60852;52.190;4.422;2023-09-19T17:25:15;5.77;;;5.26;;
68942;SDS011;60852;52.190;4.422;2023-09-19T17:27:41;5.00;;;4.54;;
68942;SDS011;60852;52.190;4.422;2023-09-19T17:30:12;5.30;;;4.83;;
68942;SDS011;60852;52.190;4.422;2023-09-19T17:32:44;4.80;;;4.38;;
68942;SDS011;60852;52.190;4.422;2023-09-19T17:35:11;4.31;;;3.94;;
68942;SDS011;60852;52.190;4.422;2023-09-19T17:37:40;5.49;;;4.90;;
68942;SDS011;60852;52.190;4.422;2023-09-19T17:40:07;5.31;;;4.76;;
68942;SDS011;60852;52.190;4.422;2023-09-19T17:42:39;4.44;;;4.16;;
68942;SDS011;60852;52.190;4.422;2023-09-19T17:45:11;4.56;;;4.36;;
68942;SDS011;60852;52.190;4.422;2023-09-19T17:47:44;4.31;;;4.06;;
68942;SDS011;60852;52.190;4.422;2023-09-19T17:50:09;4.85;;;4.51;;
68942;SDS011;60852;52.190;4.422;2023-09-19T17:52:38;4.28;;;3.94;;
68942;SDS011;60852;52.190;4.422;2023-09-19T17:55:10;4.15;;;3.79;;
68942;SDS011;60852;52.190;4.422;2023-09-19T17:57:37;4.28;;;3.94;;
68942;SDS011;60852;52.190;4.422;2023-09-19T18:00:05;4.47;;;4.11;;
68942;SDS011;60852;52.190;4.422;2023-09-19T18:02:34;4.89;;;4.50;;
68942;SDS011;60852;52.190;4.422;2023-09-19T18:05:01;4.90;;;4.48;;
68942;SDS011;60852;52.190;4.422;2023-09-19T18:07:29;4.85;;;4.55;;
68942;SDS011;60852;52.190;4.422;2023-09-19T18:09:56;4.44;;;4.21;;
68942;SDS011;60852;52.190;4.422;2023-09-19T18:12:24;4.37;;;4.24;;
68942;SDS011;60852;52.190;4.422;2023-09-19T18:14:50;4.39;;;4.21;;
68942;SDS011;60852;52.190;4.422;2023-09-19T18:17:16;4.51;;;4.28;;
68942;SDS011;60852;52.190;4.422;2023-09-19T18:19:41;4.30;;;4.10;;
68942;SDS011;60852;52.190;4.422;2023-09-19T18:22:07;4.27;;;4.11;;
68942;SDS011;60852;52.190;4.422;2023-09-19T18:24:32;4.07;;;3.96;;
68942;SDS011;60852;52.190;4.422;2023-09-19T18:26:59;3.87;;;3.80;;
68942;SDS011;60852;52.190;4.422;2023-09-19T18:29:24;4.08;;;4.07;;
68942;SDS011;60852;52.190;4.422;2023-09-19T18:31:50;4.09;;;4.07;;
68942;SDS011;60852;52.190;4.422;2023-09-19T18:34:15;4.02;;;4.01;;
68942;SDS011;60852;52.190;4.422;2023-09-19T18:36:41;4.12;;;4.09;;
68942;SDS011;60852;52.190;4.422;2023-09-19T18:39:06;4.45;;;4.42;;
68942;SDS011;60852;52.190;4.422;2023-09-19T18:41:33;4.98;;;4.96;;
68942;SDS011;60852;52.190;4.422;2023-09-19T18:44:01;4.97;;;4.96;;
68942;SDS011;60852;52.190;4.422;2023-09-19T18:46:27;4.78;;;4.78;;
68942;SDS011;60852;52.190;4.422;2023-09-19T18:48:55;4.88;;;4.85;;
68942;SDS011;60852;52.190;4.422;2023-09-19T18:51:21;4.88;;;4.82;;
68942;SDS011;60852;52.190;4.422;2023-09-19T18:53:49;5.15;;;5.13;;
68942;SDS011;60852;52.190;4.422;2023-09-19T18:56:15;5.14;;;5.13;;
68942;SDS011;60852;52.190;4.422;2023-09-19T18:58:41;5.47;;;5.46;;
68942;SDS011;60852;52.190;4.422;2023-09-19T19:01:07;5.53;;;5.45;;
68942;SDS011;60852;52.190;4.422;2023-09-19T19:03:35;5.13;;;5.13;;
68942;SDS011;60852;52.190;4.422;2023-09-19T19:06:06;5.31;;;5.19;;
68942;SDS011;60852;52.190;4.422;2023-09-19T19:08:33;5.56;;;5.30;;
68942;SDS011;60852;52.190;4.422;2023-09-19T19:11:00;5.20;;;5.01;;
68942;SDS011;60852;52.190;4.422;2023-09-19T19:13:26;5.22;;;5.02;;
68942;SDS011;60852;52.190;4.422;2023-09-19T19:15:52;5.22;;;5.07;;
68942;SDS011;60852;52.190;4.422;2023-09-19T19:18:21;5.25;;;5.15;;
68942;SDS011;60852;52.190;4.422;2023-09-19T19:20:46;5.42;;;5.25;;
68942;SDS011;60852;52.190;4.422;2023-09-19T19:23:12;5.28;;;5.21;;
68942;SDS011;60852;52.190;4.422;2023-09-19T19:25:45;4.77;;;4.77;;
68942;SDS011;60852;52.190;4.422;2023-09-19T19:28:12;4.89;;;4.86;;
68942;SDS011;60852;52.190;4.422;2023-09-19T19:30:42;5.46;;;5.40;;
68942;SDS011;60852;52.190;4.422;2023-09-19T19:33:09;5.50;;;5.42;;
68942;SDS011;60852;52.190;4.422;2023-09-19T19:35:35;5.54;;;5.44;;
68942;SDS011;60852;52.190;4.422;2023-09-19T19:38:01;5.43;;;5.34;;